Wilmington, OH

4:53 PM EDT on April 27, 2017 (GMT -0400)
Truesdell St | | Change Station

Elev 1023 ft 39.44 °N, 83.83 °W | Updated 30 seconds ago

Partly Cloudy
Partly Cloudy
68.1 °F
Feels Like 68.1 °F
N
4.0
Wind Variable Wind from West

Today
High -- | Low -- °F
--% Chance of Precip.
Yesterday
High -- | Low -- °F
Precip. -- in
Pressure 29.66 in
Visibility 10.0 miles
Clouds Few 3900 ft
Dew Point 52 °F
Humidity 58%
Rainfall 0.14 in
Snow Depth Not available.
6:41 AM 8:25 PM
Waxing Crescent, 3% visible
METAR KILN 271954Z AUTO 25022G30KT 10SM FEW039 21/13 A2968 RMK AO2 PK WND 26030/1952 SLP042 T02060133
Pressure 29.66 in
Visibility 10.0 miles
Clouds Few 3900 ft
Dew Point 52 °F
Humidity 58%
Rainfall 0.14 in
Snow Depth Not available.
6:41 AM 8:25 PM
Waxing Crescent, 3% visible
METAR KILN 271954Z AUTO 25022G30KT 10SM FEW039 21/13 A2968 RMK AO2 PK WND 26030/1952 SLP042 T02060133

Get Severe Weather Alerts

Thanks for signing up!

Be on the lookout for a verification email in your inbox.

You'll start receiving the daily forecast at 8 AM.

×

10-Day Weather Forecast

Almanac

Astronomy

Apr. 27, 2017 Rise Set
Actual Time
Civil Twilight
Nautical Twilight
Astronomical Twilight
Moon
Length of Visible Light
Length of Day
Tomorrow will be .
, % of the Moon is Illuminated

Today's Extremes

State Highs State Lows

Community

WunderPhotos

WunderBlog® & News

Nearby

Air Quality

  Air Quality AQ Index Pollutant
Not available.

Snow Depth

Station Depth Elevation

Earthquake Activity

City Distance Mag. Time & Date
Minimum magnitude displayed is 2.5.

Coastal Water Temperatures

Place Temperature

Stations

Nearby Weather Stations

Station Location Temp. Windchill Dew Point Humidity Wind Precip. Elev Updated Type
                   

Watches & Warnings

There are currently no watches in effect.